sensor_id;sensor_type;location;lat;lon;timestamp;P1;durP1;ratioP1;P2;durP2;ratioP2
61471;SDS011;47337;54.068;12.114;2023-05-27T00:02:01;14.57;;;4.95;;
61471;SDS011;47337;54.068;12.114;2023-05-27T00:04:28;14.00;;;5.55;;
61471;SDS011;47337;54.068;12.114;2023-05-27T00:06:53;13.93;;;4.47;;
61471;SDS011;47337;54.068;12.114;2023-05-27T00:09:19;11.45;;;4.85;;
61471;SDS011;47337;54.068;12.114;2023-05-27T00:11:44;14.43;;;4.28;;
61471;SDS011;47337;54.068;12.114;2023-05-27T00:14:09;16.33;;;5.07;;
61471;SDS011;47337;54.068;12.114;2023-05-27T00:16:34;12.68;;;4.53;;
61471;SDS011;47337;54.068;12.114;2023-05-27T00:19:02;12.48;;;4.50;;
61471;SDS011;47337;54.068;12.114;2023-05-27T00:21:27;20.80;;;4.72;;
61471;SDS011;47337;54.068;12.114;2023-05-27T00:23:53;13.98;;;4.38;;
61471;SDS011;47337;54.068;12.114;2023-05-27T00:26:22;15.88;;;4.95;;
61471;SDS011;47337;54.068;12.114;2023-05-27T00:28:47;20.20;;;5.30;;
61471;SDS011;47337;54.068;12.114;2023-05-27T00:31:15;15.13;;;5.32;;
61471;SDS011;47337;54.068;12.114;2023-05-27T00:33:40;19.38;;;5.15;;
61471;SDS011;47337;54.068;12.114;2023-05-27T00:36:06;20.55;;;5.88;;
61471;SDS011;47337;54.068;12.114;2023-05-27T00:38:31;15.05;;;5.07;;
61471;SDS011;47337;54.068;12.114;2023-05-27T00:40:58;17.38;;;5.32;;
61471;SDS011;47337;54.068;12.114;2023-05-27T00:43:25;15.68;;;5.15;;
61471;SDS011;47337;54.068;12.114;2023-05-27T00:45:50;12.00;;;4.95;;
61471;SDS011;47337;54.068;12.114;2023-05-27T00:48:15;13.73;;;4.75;;
61471;SDS011;47337;54.068;12.114;2023-05-27T00:50:40;14.32;;;5.45;;
61471;SDS011;47337;54.068;12.114;2023-05-27T00:53:06;12.52;;;4.97;;
61471;SDS011;47337;54.068;12.114;2023-05-27T00:55:33;13.20;;;5.90;;
61471;SDS011;47337;54.068;12.114;2023-05-27T00:57:59;15.13;;;5.18;;
61471;SDS011;47337;54.068;12.114;2023-05-27T01:00:26;21.02;;;5.43;;
61471;SDS011;47337;54.068;12.114;2023-05-27T01:02:52;15.52;;;5.60;;
61471;SDS011;47337;54.068;12.114;2023-05-27T01:05:18;14.90;;;5.20;;
61471;SDS011;47337;54.068;12.114;2023-05-27T01:12:59;19.38;;;5.93;;
61471;SDS011;47337;54.068;12.114;2023-05-27T01:15:25;16.48;;;5.70;;
61471;SDS011;47337;54.068;12.114;2023-05-27T01:17:51;18.33;;;5.40;;
61471;SDS011;47337;54.068;12.114;2023-05-27T01:20:19;15.40;;;5.38;;
61471;SDS011;47337;54.068;12.114;2023-05-27T01:22:45;12.82;;;5.07;;
61471;SDS011;47337;54.068;12.114;2023-05-27T01:25:10;13.55;;;5.07;;
61471;SDS011;47337;54.068;12.114;2023-05-27T01:27:36;12.50;;;5.13;;
61471;SDS011;47337;54.068;12.114;2023-05-27T01:30:05;15.70;;;5.55;;
61471;SDS011;47337;54.068;12.114;2023-05-27T01:32:33;18.10;;;6.07;;
61471;SDS011;47337;54.068;12.114;2023-05-27T01:37:57;14.25;;;5.72;;
61471;SDS011;47337;54.068;12.114;2023-05-27T01:40:24;15.25;;;5.93;;
61471;SDS011;47337;54.068;12.114;2023-05-27T01:42:51;20.23;;;5.47;;
61471;SDS011;47337;54.068;12.114;2023-05-27T01:45:19;19.70;;;5.93;;
61471;SDS011;47337;54.068;12.114;2023-05-27T01:47:44;12.98;;;5.45;;
61471;SDS011;47337;54.068;12.114;2023-05-27T01:50:12;18.58;;;5.85;;
61471;SDS011;47337;54.068;12.114;2023-05-27T01:52:37;13.40;;;5.68;;
61471;SDS011;47337;54.068;12.114;2023-05-27T01:55:05;12.98;;;5.32;;
61471;SDS011;47337;54.068;12.114;2023-05-27T01:57:32;18.98;;;6.00;;
61471;SDS011;47337;54.068;12.114;2023-05-27T01:59:57;16.38;;;5.95;;
61471;SDS011;47337;54.068;12.114;2023-05-27T02:02:23;14.20;;;5.80;;
61471;SDS011;47337;54.068;12.114;2023-05-27T02:04:50;15.80;;;5.85;;
61471;SDS011;47337;54.068;12.114;2023-05-27T02:07:15;10.13;;;4.97;;
61471;SDS011;47337;54.068;12.114;2023-05-27T02:09:42;13.23;;;5.00;;
61471;SDS011;47337;54.068;12.114;2023-05-27T02:12:10;11.55;;;4.80;;
61471;SDS011;47337;54.068;12.114;2023-05-27T02:14:38;12.52;;;5.50;;
61471;SDS011;47337;54.068;12.114;2023-05-27T02:17:04;16.98;;;6.05;;
61471;SDS011;47337;54.068;12.114;2023-05-27T02:19:29;17.02;;;6.20;;
61471;SDS011;47337;54.068;12.114;2023-05-27T02:21:54;16.88;;;5.70;;
61471;SDS011;47337;54.068;12.114;2023-05-27T02:24:19;18.40;;;6.07;;
61471;SDS011;47337;54.068;12.114;2023-05-27T02:26:45;16.70;;;6.68;;
61471;SDS011;47337;54.068;12.114;2023-05-27T02:29:10;14.40;;;5.78;;
61471;SDS011;47337;54.068;12.114;2023-05-27T02:31:35;15.23;;;6.10;;
61471;SDS011;47337;54.068;12.114;2023-05-27T02:34:01;17.55;;;5.80;;
61471;SDS011;47337;54.068;12.114;2023-05-27T02:36:26;15.93;;;5.60;;
61471;SDS011;47337;54.068;12.114;2023-05-27T02:38:51;14.60;;;5.70;;
61471;SDS011;47337;54.068;12.114;2023-05-27T02:41:19;17.95;;;6.30;;
61471;SDS011;47337;54.068;12.114;2023-05-27T02:43:47;21.75;;;6.43;;
61471;SDS011;47337;54.068;12.114;2023-05-27T02:46:12;14.23;;;6.15;;
61471;SDS011;47337;54.068;12.114;2023-05-27T02:48:37;15.20;;;5.68;;
61471;SDS011;47337;54.068;12.114;2023-05-27T02:51:02;16.73;;;6.05;;
61471;SDS011;47337;54.068;12.114;2023-05-27T02:53:30;15.73;;;5.85;;
61471;SDS011;47337;54.068;12.114;2023-05-27T02:55:56;15.70;;;6.22;;
61471;SDS011;47337;54.068;12.114;2023-05-27T02:58:23;18.95;;;6.60;;
61471;SDS011;47337;54.068;12.114;2023-05-27T03:00:48;19.70;;;6.50;;
61471;SDS011;47337;54.068;12.114;2023-05-27T03:03:14;16.20;;;5.90;;
61471;SDS011;47337;54.068;12.114;2023-05-27T03:05:39;16.40;;;6.22;;
61471;SDS011;47337;54.068;12.114;2023-05-27T03:08:07;13.63;;;5.70;;
61471;SDS011;47337;54.068;12.114;2023-05-27T03:10:32;16.05;;;5.82;;
61471;SDS011;47337;54.068;12.114;2023-05-27T03:12:57;15.85;;;4.85;;
61471;SDS011;47337;54.068;12.114;2023-05-27T03:15:24;15.85;;;5.88;;
61471;SDS011;47337;54.068;12.114;2023-05-27T03:17:49;16.75;;;5.35;;
61471;SDS011;47337;54.068;12.114;2023-05-27T03:20:15;19.55;;;5.93;;
61471;SDS011;47337;54.068;12.114;2023-05-27T03:22:41;15.30;;;5.53;;
61471;SDS011;47337;54.068;12.114;2023-05-27T03:25:07;17.58;;;5.50;;
61471;SDS011;47337;54.068;12.114;2023-05-27T03:27:35;11.98;;;5.43;;
61471;SDS011;47337;54.068;12.114;2023-05-27T03:30:01;12.70;;;5.15;;
61471;SDS011;47337;54.068;12.114;2023-05-27T03:32:27;13.95;;;5.55;;
61471;SDS011;47337;54.068;12.114;2023-05-27T03:34:53;13.35;;;6.22;;
61471;SDS011;47337;54.068;12.114;2023-05-27T03:37:20;12.73;;;5.40;;
61471;SDS011;47337;54.068;12.114;2023-05-27T03:39:45;11.98;;;5.15;;
61471;SDS011;47337;54.068;12.114;2023-05-27T03:42:13;17.85;;;5.72;;
61471;SDS011;47337;54.068;12.114;2023-05-27T03:44:39;17.45;;;5.47;;
61471;SDS011;47337;54.068;12.114;2023-05-27T03:47:05;11.38;;;5.20;;
61471;SDS011;47337;54.068;12.114;2023-05-27T03:49:30;19.13;;;6.13;;
61471;SDS011;47337;54.068;12.114;2023-05-27T03:51:55;14.27;;;4.40;;
61471;SDS011;47337;54.068;12.114;2023-05-27T03:54:23;10.77;;;4.43;;
61471;SDS011;47337;54.068;12.114;2023-05-27T03:56:48;11.80;;;4.40;;
61471;SDS011;47337;54.068;12.114;2023-05-27T03:59:13;9.15;;;3.60;;
61471;SDS011;47337;54.068;12.114;2023-05-27T04:01:43;7.03;;;3.10;;
61471;SDS011;47337;54.068;12.114;2023-05-27T04:04:08;6.95;;;3.20;;
61471;SDS011;47337;54.068;12.114;2023-05-27T04:06:34;6.97;;;3.40;;
61471;SDS011;47337;54.068;12.114;2023-05-27T04:08:59;9.70;;;3.10;;
61471;SDS011;47337;54.068;12.114;2023-05-27T04:11:25;6.70;;;3.40;;
61471;SDS011;47337;54.068;12.114;2023-05-27T04:13:51;6.35;;;3.22;;
61471;SDS011;47337;54.068;12.114;2023-05-27T04:16:16;10.38;;;3.83;;
61471;SDS011;47337;54.068;12.114;2023-05-27T04:18:42;8.38;;;3.35;;
61471;SDS011;47337;54.068;12.114;2023-05-27T04:21:09;10.77;;;3.38;;
61471;SDS011;47337;54.068;12.114;2023-05-27T04:23:37;6.65;;;2.85;;
61471;SDS011;47337;54.068;12.114;2023-05-27T04:26:02;10.15;;;4.05;;
61471;SDS011;47337;54.068;12.114;2023-05-27T04:28:27;7.70;;;3.60;;
61471;SDS011;47337;54.068;12.114;2023-05-27T04:30:53;10.60;;;3.53;;
61471;SDS011;47337;54.068;12.114;2023-05-27T04:33:18;8.00;;;3.80;;
61471;SDS011;47337;54.068;12.114;2023-05-27T04:35:44;5.70;;;3.35;;
61471;SDS011;47337;54.068;12.114;2023-05-27T04:38:10;7.57;;;3.13;;
61471;SDS011;47337;54.068;12.114;2023-05-27T04:40:41;5.93;;;3.15;;
61471;SDS011;47337;54.068;12.114;2023-05-27T04:43:09;9.10;;;2.97;;
61471;SDS011;47337;54.068;12.114;2023-05-27T04:45:37;6.13;;;2.97;;
61471;SDS011;47337;54.068;12.114;2023-05-27T04:48:02;7.60;;;3.20;;
61471;SDS011;47337;54.068;12.114;2023-05-27T04:50:28;8.88;;;2.80;;
61471;SDS011;47337;54.068;12.114;2023-05-27T04:52:53;8.20;;;3.58;;
61471;SDS011;47337;54.068;12.114;2023-05-27T04:55:19;8.52;;;2.75;;
61471;SDS011;47337;54.068;12.114;2023-05-27T04:57:44;7.70;;;3.13;;
61471;SDS011;47337;54.068;12.114;2023-05-27T05:00:09;8.10;;;3.05;;
61471;SDS011;47337;54.068;12.114;2023-05-27T05:02:35;8.00;;;3.65;;
61471;SDS011;47337;54.068;12.114;2023-05-27T05:05:03;14.43;;;3.03;;
61471;SDS011;47337;54.068;12.114;2023-05-27T05:07:29;14.57;;;3.28;;
61471;SDS011;47337;54.068;12.114;2023-05-27T05:09:55;9.60;;;2.45;;
61471;SDS011;47337;54.068;12.114;2023-05-27T05:12:21;9.85;;;2.85;;
61471;SDS011;47337;54.068;12.114;2023-05-27T05:14:46;6.30;;;2.95;;
61471;SDS011;47337;54.068;12.114;2023-05-27T05:17:11;5.68;;;2.63;;
61471;SDS011;47337;54.068;12.114;2023-05-27T05:19:36;7.13;;;3.00;;
61471;SDS011;47337;54.068;12.114;2023-05-27T05:22:02;6.45;;;2.88;;
61471;SDS011;47337;54.068;12.114;2023-05-27T05:24:27;7.70;;;2.90;;
61471;SDS011;47337;54.068;12.114;2023-05-27T05:26:52;7.43;;;2.58;;
61471;SDS011;47337;54.068;12.114;2023-05-27T05:29:20;8.27;;;2.97;;
61471;SDS011;47337;54.068;12.114;2023-05-27T05:31:45;9.27;;;3.13;;
61471;SDS011;47337;54.068;12.114;2023-05-27T05:34:13;11.15;;;3.03;;
61471;SDS011;47337;54.068;12.114;2023-05-27T05:36:40;12.18;;;2.97;;
61471;SDS011;47337;54.068;12.114;2023-05-27T05:39:06;6.88;;;2.88;;
61471;SDS011;47337;54.068;12.114;2023-05-27T05:41:33;10.15;;;2.53;;
61471;SDS011;47337;54.068;12.114;2023-05-27T05:43:58;9.23;;;2.97;;
61471;SDS011;47337;54.068;12.114;2023-05-27T05:46:24;11.48;;;3.13;;
61471;SDS011;47337;54.068;12.114;2023-05-27T05:48:52;11.48;;;2.70;;
61471;SDS011;47337;54.068;12.114;2023-05-27T05:51:20;9.73;;;2.95;;
61471;SDS011;47337;54.068;12.114;2023-05-27T05:53:45;9.30;;;2.90;;
61471;SDS011;47337;54.068;12.114;2023-05-27T05:56:11;13.70;;;2.78;;
61471;SDS011;47337;54.068;12.114;2023-05-27T05:58:36;9.30;;;2.80;;
61471;SDS011;47337;54.068;12.114;2023-05-27T06:01:04;7.05;;;2.33;;
61471;SDS011;47337;54.068;12.114;2023-05-27T06:03:29;10.38;;;3.30;;
61471;SDS011;47337;54.068;12.114;2023-05-27T06:05:54;9.63;;;2.90;;
61471;SDS011;47337;54.068;12.114;2023-05-27T06:08:20;9.57;;;2.40;;
61471;SDS011;47337;54.068;12.114;2023-05-27T06:10:45;8.68;;;2.78;;
61471;SDS011;47337;54.068;12.114;2023-05-27T06:13:11;12.35;;;3.10;;
61471;SDS011;47337;54.068;12.114;2023-05-27T06:15:36;7.07;;;2.63;;
61471;SDS011;47337;54.068;12.114;2023-05-27T06:18:02;7.00;;;2.17;;
61471;SDS011;47337;54.068;12.114;2023-05-27T06:20:27;8.02;;;2.55;;
61471;SDS011;47337;54.068;12.114;2023-05-27T06:22:55;10.52;;;2.58;;
61471;SDS011;47337;54.068;12.114;2023-05-27T06:25:20;9.32;;;2.65;;
61471;SDS011;47337;54.068;12.114;2023-05-27T06:27:46;7.75;;;2.17;;
61471;SDS011;47337;54.068;12.114;2023-05-27T06:30:11;7.03;;;2.35;;
61471;SDS011;47337;54.068;12.114;2023-05-27T06:32:36;8.60;;;2.40;;
61471;SDS011;47337;54.068;12.114;2023-05-27T06:35:02;9.63;;;2.75;;
61471;SDS011;47337;54.068;12.114;2023-05-27T06:37:29;9.40;;;2.58;;
61471;SDS011;47337;54.068;12.114;2023-05-27T06:39:55;9.00;;;2.30;;
61471;SDS011;47337;54.068;12.114;2023-05-27T06:42:20;7.10;;;2.13;;
61471;SDS011;47337;54.068;12.114;2023-05-27T06:44:49;8.07;;;2.50;;
61471;SDS011;47337;54.068;12.114;2023-05-27T06:47:15;5.75;;;1.80;;
61471;SDS011;47337;54.068;12.114;2023-05-27T06:49:40;8.73;;;2.75;;
61471;SDS011;47337;54.068;12.114;2023-05-27T06:52:05;5.57;;;1.63;;
61471;SDS011;47337;54.068;12.114;2023-05-27T06:54:31;6.65;;;1.50;;
61471;SDS011;47337;54.068;12.114;2023-05-27T06:56:56;6.30;;;1.90;;
61471;SDS011;47337;54.068;12.114;2023-05-27T06:59:23;6.32;;;1.50;;
61471;SDS011;47337;54.068;12.114;2023-05-27T07:01:48;5.45;;;1.70;;
61471;SDS011;47337;54.068;12.114;2023-05-27T07:04:13;4.45;;;1.50;;
61471;SDS011;47337;54.068;12.114;2023-05-27T07:06:38;4.57;;;1.80;;
61471;SDS011;47337;54.068;12.114;2023-05-27T07:09:04;4.78;;;1.67;;
61471;SDS011;47337;54.068;12.114;2023-05-27T07:11:29;9.63;;;1.83;;
61471;SDS011;47337;54.068;12.114;2023-05-27T07:13:54;6.40;;;1.50;;
61471;SDS011;47337;54.068;12.114;2023-05-27T07:16:20;5.22;;;1.55;;
61471;SDS011;47337;54.068;12.114;2023-05-27T07:18:46;8.68;;;1.85;;
61471;SDS011;47337;54.068;12.114;2023-05-27T07:21:11;6.28;;;1.55;;
61471;SDS011;47337;54.068;12.114;2023-05-27T07:23:36;5.35;;;1.90;;
61471;SDS011;47337;54.068;12.114;2023-05-27T07:26:04;3.75;;;1.50;;
61471;SDS011;47337;54.068;12.114;2023-05-27T07:28:29;5.90;;;2.00;;
61471;SDS011;47337;54.068;12.114;2023-05-27T07:30:55;4.60;;;1.70;;
61471;SDS011;47337;54.068;12.114;2023-05-27T07:33:20;4.82;;;1.58;;
61471;SDS011;47337;54.068;12.114;2023-05-27T07:35:45;6.07;;;1.33;;
61471;SDS011;47337;54.068;12.114;2023-05-27T07:38:11;6.65;;;2.10;;
61471;SDS011;47337;54.068;12.114;2023-05-27T07:40:39;3.13;;;1.45;;
61471;SDS011;47337;54.068;12.114;2023-05-27T07:43:04;7.53;;;1.45;;
61471;SDS011;47337;54.068;12.114;2023-05-27T07:45:29;7.18;;;1.50;;
61471;SDS011;47337;54.068;12.114;2023-05-27T07:47:55;2.92;;;1.45;;
61471;SDS011;47337;54.068;12.114;2023-05-27T07:50:23;5.57;;;1.65;;
61471;SDS011;47337;54.068;12.114;2023-05-27T07:52:49;3.60;;;1.50;;
61471;SDS011;47337;54.068;12.114;2023-05-27T07:55:14;3.78;;;1.42;;
61471;SDS011;47337;54.068;12.114;2023-05-27T07:57:39;4.82;;;1.85;;
61471;SDS011;47337;54.068;12.114;2023-05-27T08:00:06;10.57;;;1.63;;
61471;SDS011;47337;54.068;12.114;2023-05-27T08:02:32;4.57;;;1.40;;
61471;SDS011;47337;54.068;12.114;2023-05-27T08:04:57;8.15;;;1.60;;
61471;SDS011;47337;54.068;12.114;2023-05-27T08:07:22;9.45;;;2.05;;
61471;SDS011;47337;54.068;12.114;2023-05-27T08:09:48;4.85;;;1.88;;
61471;SDS011;47337;54.068;12.114;2023-05-27T08:12:13;6.88;;;1.90;;
61471;SDS011;47337;54.068;12.114;2023-05-27T08:14:38;7.00;;;2.05;;
61471;SDS011;47337;54.068;12.114;2023-05-27T08:17:05;7.65;;;1.92;;
61471;SDS011;47337;54.068;12.114;2023-05-27T08:19:32;4.65;;;1.58;;
61471;SDS011;47337;54.068;12.114;2023-05-27T08:21:58;9.35;;;2.35;;
61471;SDS011;47337;54.068;12.114;2023-05-27T08:24:24;6.18;;;1.85;;
61471;SDS011;47337;54.068;12.114;2023-05-27T08:26:49;9.52;;;2.50;;
61471;SDS011;47337;54.068;12.114;2023-05-27T08:29:15;7.28;;;2.00;;
61471;SDS011;47337;54.068;12.114;2023-05-27T08:31:40;6.65;;;2.20;;
61471;SDS011;47337;54.068;12.114;2023-05-27T08:34:06;7.95;;;2.03;;
61471;SDS011;47337;54.068;12.114;2023-05-27T08:36:31;6.70;;;2.50;;
61471;SDS011;47337;54.068;12.114;2023-05-27T08:39:00;8.25;;;2.25;;
61471;SDS011;47337;54.068;12.114;2023-05-27T08:41:26;5.43;;;2.35;;
61471;SDS011;47337;54.068;12.114;2023-05-27T08:43:52;8.13;;;1.90;;
61471;SDS011;47337;54.068;12.114;2023-05-27T08:46:18;5.50;;;2.00;;
61471;SDS011;47337;54.068;12.114;2023-05-27T08:48:44;6.90;;;2.33;;
61471;SDS011;47337;54.068;12.114;2023-05-27T08:51:09;8.05;;;2.33;;
61471;SDS011;47337;54.068;12.114;2023-05-27T08:53:39;8.55;;;2.40;;
61471;SDS011;47337;54.068;12.114;2023-05-27T08:56:05;8.45;;;3.03;;
61471;SDS011;47337;54.068;12.114;2023-05-27T08:58:31;12.23;;;2.70;;
61471;SDS011;47337;54.068;12.114;2023-05-27T09:00:57;12.60;;;3.17;;
61471;SDS011;47337;54.068;12.114;2023-05-27T09:03:22;7.72;;;2.00;;
61471;SDS011;47337;54.068;12.114;2023-05-27T09:05:47;7.97;;;2.03;;
61471;SDS011;47337;54.068;12.114;2023-05-27T09:08:15;6.93;;;2.22;;
61471;SDS011;47337;54.068;12.114;2023-05-27T09:10:45;5.85;;;2.17;;
61471;SDS011;47337;54.068;12.114;2023-05-27T09:13:10;7.68;;;2.80;;
61471;SDS011;47337;54.068;12.114;2023-05-27T09:15:37;5.53;;;2.47;;
61471;SDS011;47337;54.068;12.114;2023-05-27T09:18:03;10.73;;;2.90;;
61471;SDS011;47337;54.068;12.114;2023-05-27T09:20:28;6.30;;;2.10;;
61471;SDS011;47337;54.068;12.114;2023-05-27T09:23:00;12.60;;;2.92;;
61471;SDS011;47337;54.068;12.114;2023-05-27T09:25:26;6.68;;;2.10;;
61471;SDS011;47337;54.068;12.114;2023-05-27T09:27:54;6.30;;;2.67;;
61471;SDS011;47337;54.068;12.114;2023-05-27T09:30:20;8.43;;;2.42;;
61471;SDS011;47337;54.068;12.114;2023-05-27T09:32:46;11.52;;;3.30;;
61471;SDS011;47337;54.068;12.114;2023-05-27T09:35:11;10.23;;;2.83;;
61471;SDS011;47337;54.068;12.114;2023-05-27T09:37:37;12.07;;;3.13;;
61471;SDS011;47337;54.068;12.114;2023-05-27T09:42:43;7.18;;;2.72;;
61471;SDS011;47337;54.068;12.114;2023-05-27T09:45:30;10.88;;;3.65;;
61471;SDS011;47337;54.068;12.114;2023-05-27T09:47:55;14.02;;;3.15;;
61471;SDS011;47337;54.068;12.114;2023-05-27T09:50:21;12.10;;;2.95;;
61471;SDS011;47337;54.068;12.114;2023-05-27T09:52:49;12.55;;;3.30;;
61471;SDS011;47337;54.068;12.114;2023-05-27T09:55:14;11.77;;;3.38;;
61471;SDS011;47337;54.068;12.114;2023-05-27T09:57:40;9.65;;;3.28;;
61471;SDS011;47337;54.068;12.114;2023-05-27T10:00:09;12.55;;;3.60;;
61471;SDS011;47337;54.068;12.114;2023-05-27T10:02:41;11.82;;;3.40;;
61471;SDS011;47337;54.068;12.114;2023-05-27T10:05:07;9.65;;;3.03;;
61471;SDS011;47337;54.068;12.114;2023-05-27T10:07:36;8.68;;;3.45;;
61471;SDS011;47337;54.068;12.114;2023-05-27T10:10:03;5.13;;;2.70;;
61471;SDS011;47337;54.068;12.114;2023-05-27T10:12:29;10.05;;;3.03;;
61471;SDS011;47337;54.068;12.114;2023-05-27T10:14:55;9.25;;;2.72;;
61471;SDS011;47337;54.068;12.114;2023-05-27T10:17:21;12.60;;;3.30;;
61471;SDS011;47337;54.068;12.114;2023-05-27T10:19:53;11.00;;;2.63;;
61471;SDS011;47337;54.068;12.114;2023-05-27T10:22:19;10.98;;;2.58;;
61471;SDS011;47337;54.068;12.114;2023-05-27T10:24:46;9.45;;;2.83;;
61471;SDS011;47337;54.068;12.114;2023-05-27T10:27:12;9.32;;;3.47;;
61471;SDS011;47337;54.068;12.114;2023-05-27T10:29:38;12.73;;;3.15;;
61471;SDS011;47337;54.068;12.114;2023-05-27T10:32:03;8.23;;;2.85;;
61471;SDS011;47337;54.068;12.114;2023-05-27T10:34:35;16.73;;;3.58;;
61471;SDS011;47337;54.068;12.114;2023-05-27T10:37:01;13.98;;;3.60;;
61471;SDS011;47337;54.068;12.114;2023-05-27T10:39:26;8.85;;;3.20;;
61471;SDS011;47337;54.068;12.114;2023-05-27T10:41:52;12.48;;;3.72;;
61471;SDS011;47337;54.068;12.114;2023-05-27T10:44:28;12.38;;;3.35;;
61471;SDS011;47337;54.068;12.114;2023-05-27T10:47:03;10.38;;;2.72;;
61471;SDS011;47337;54.068;12.114;2023-05-27T10:49:28;11.15;;;3.35;;
61471;SDS011;47337;54.068;12.114;2023-05-27T10:52:04;11.20;;;3.30;;
61471;SDS011;47337;54.068;12.114;2023-05-27T10:54:35;10.50;;;3.58;;
61471;SDS011;47337;54.068;12.114;2023-05-27T10:57:01;10.90;;;3.33;;
61471;SDS011;47337;54.068;12.114;2023-05-27T10:59:27;10.30;;;3.22;;
61471;SDS011;47337;54.068;12.114;2023-05-27T11:01:58;10.07;;;3.45;;
61471;SDS011;47337;54.068;12.114;2023-05-27T11:04:24;11.70;;;3.03;;
61471;SDS011;47337;54.068;12.114;2023-05-27T11:06:58;8.30;;;2.95;;
61471;SDS011;47337;54.068;12.114;2023-05-27T11:09:26;8.70;;;3.47;;
61471;SDS011;47337;54.068;12.114;2023-05-27T11:11:52;10.10;;;3.00;;
61471;SDS011;47337;54.068;12.114;2023-05-27T11:14:17;11.65;;;2.88;;
61471;SDS011;47337;54.068;12.114;2023-05-27T11:16:49;11.18;;;3.42;;
61471;SDS011;47337;54.068;12.114;2023-05-27T11:19:20;10.43;;;3.85;;
61471;SDS011;47337;54.068;12.114;2023-05-27T11:21:48;11.77;;;2.45;;
61471;SDS011;47337;54.068;12.114;2023-05-27T11:24:17;10.85;;;2.95;;
61471;SDS011;47337;54.068;12.114;2023-05-27T11:26:43;9.65;;;3.22;;
61471;SDS011;47337;54.068;12.114;2023-05-27T11:29:11;9.88;;;2.92;;
61471;SDS011;47337;54.068;12.114;2023-05-27T11:31:36;9.48;;;3.03;;
61471;SDS011;47337;54.068;12.114;2023-05-27T11:34:10;10.13;;;3.13;;
61471;SDS011;47337;54.068;12.114;2023-05-27T11:36:36;8.73;;;2.40;;
61471;SDS011;47337;54.068;12.114;2023-05-27T11:39:01;7.75;;;2.67;;
61471;SDS011;47337;54.068;12.114;2023-05-27T11:41:30;11.48;;;2.90;;
61471;SDS011;47337;54.068;12.114;2023-05-27T11:46:22;9.23;;;3.13;;
61471;SDS011;47337;54.068;12.114;2023-05-27T11:48:47;10.05;;;3.17;;
61471;SDS011;47337;54.068;12.114;2023-05-27T11:51:13;8.68;;;2.63;;
61471;SDS011;47337;54.068;12.114;2023-05-27T11:53:41;7.47;;;2.67;;
61471;SDS011;47337;54.068;12.114;2023-05-27T11:56:09;9.15;;;2.53;;
61471;SDS011;47337;54.068;12.114;2023-05-27T11:58:34;11.30;;;3.00;;
61471;SDS011;47337;54.068;12.114;2023-05-27T12:00:59;11.07;;;3.08;;
61471;SDS011;47337;54.068;12.114;2023-05-27T12:03:25;10.82;;;2.90;;
61471;SDS011;47337;54.068;12.114;2023-05-27T12:05:50;10.35;;;2.95;;
61471;SDS011;47337;54.068;12.114;2023-05-27T12:08:15;11.75;;;3.13;;
61471;SDS011;47337;54.068;12.114;2023-05-27T12:10:41;9.05;;;3.33;;
61471;SDS011;47337;54.068;12.114;2023-05-27T12:13:06;9.85;;;2.85;;
61471;SDS011;47337;54.068;12.114;2023-05-27T12:15:37;6.60;;;2.70;;
61471;SDS011;47337;54.068;12.114;2023-05-27T12:18:02;12.70;;;2.95;;
61471;SDS011;47337;54.068;12.114;2023-05-27T12:20:27;9.68;;;3.30;;
61471;SDS011;47337;54.068;12.114;2023-05-27T12:22:54;14.80;;;3.05;;
61471;SDS011;47337;54.068;12.114;2023-05-27T12:25:19;9.23;;;2.65;;
61471;SDS011;47337;54.068;12.114;2023-05-27T12:27:45;10.68;;;2.90;;
61471;SDS011;47337;54.068;12.114;2023-05-27T12:30:10;9.55;;;2.90;;
61471;SDS011;47337;54.068;12.114;2023-05-27T12:32:36;8.90;;;3.17;;
61471;SDS011;47337;54.068;12.114;2023-05-27T12:35:01;10.70;;;3.10;;
61471;SDS011;47337;54.068;12.114;2023-05-27T12:37:28;8.23;;;2.70;;
61471;SDS011;47337;54.068;12.114;2023-05-27T12:39:56;11.20;;;2.83;;
61471;SDS011;47337;54.068;12.114;2023-05-27T12:42:21;10.85;;;2.67;;
61471;SDS011;47337;54.068;12.114;2023-05-27T12:44:47;8.52;;;2.75;;
61471;SDS011;47337;54.068;12.114;2023-05-27T12:47:15;11.88;;;2.80;;
61471;SDS011;47337;54.068;12.114;2023-05-27T12:49:40;10.20;;;2.13;;
61471;SDS011;47337;54.068;12.114;2023-05-27T12:52:07;12.18;;;2.80;;
61471;SDS011;47337;54.068;12.114;2023-05-27T12:54:32;11.77;;;3.20;;
61471;SDS011;47337;54.068;12.114;2023-05-27T12:56:57;7.68;;;2.88;;
61471;SDS011;47337;54.068;12.114;2023-05-27T12:59:23;10.95;;;2.85;;
61471;SDS011;47337;54.068;12.114;2023-05-27T13:01:48;11.60;;;2.95;;
61471;SDS011;47337;54.068;12.114;2023-05-27T13:04:13;10.60;;;3.17;;
61471;SDS011;47337;54.068;12.114;2023-05-27T13:06:38;12.05;;;3.25;;
61471;SDS011;47337;54.068;12.114;2023-05-27T13:09:04;10.18;;;2.85;;
61471;SDS011;47337;54.068;12.114;2023-05-27T13:11:30;7.80;;;2.35;;
61471;SDS011;47337;54.068;12.114;2023-05-27T13:13:55;7.75;;;2.78;;
61471;SDS011;47337;54.068;12.114;2023-05-27T13:16:20;12.20;;;3.20;;
61471;SDS011;47337;54.068;12.114;2023-05-27T13:18:46;8.82;;;2.58;;
61471;SDS011;47337;54.068;12.114;2023-05-27T13:21:14;9.52;;;2.95;;
61471;SDS011;47337;54.068;12.114;2023-05-27T13:23:40;8.88;;;3.10;;
61471;SDS011;47337;54.068;12.114;2023-05-27T13:26:07;10.38;;;2.75;;
61471;SDS011;47337;54.068;12.114;2023-05-27T13:28:32;8.55;;;3.10;;
61471;SDS011;47337;54.068;12.114;2023-05-27T13:30:58;8.38;;;2.92;;
61471;SDS011;47337;54.068;12.114;2023-05-27T13:33:23;9.93;;;3.00;;
61471;SDS011;47337;54.068;12.114;2023-05-27T13:35:49;7.75;;;3.03;;
61471;SDS011;47337;54.068;12.114;2023-05-27T13:38:14;7.32;;;2.38;;
61471;SDS011;47337;54.068;12.114;2023-05-27T13:40:41;13.48;;;3.13;;
61471;SDS011;47337;54.068;12.114;2023-05-27T13:43:07;10.13;;;2.67;;
61471;SDS011;47337;54.068;12.114;2023-05-27T13:45:32;10.50;;;2.67;;
61471;SDS011;47337;54.068;12.114;2023-05-27T13:47:57;10.88;;;2.72;;
61471;SDS011;47337;54.068;12.114;2023-05-27T13:50:23;10.50;;;3.40;;
61471;SDS011;47337;54.068;12.114;2023-05-27T13:52:48;6.78;;;2.83;;
61471;SDS011;47337;54.068;12.114;2023-05-27T13:55:13;11.15;;;3.15;;
61471;SDS011;47337;54.068;12.114;2023-05-27T13:57:41;12.75;;;3.72;;
61471;SDS011;47337;54.068;12.114;2023-05-27T14:00:08;7.47;;;2.58;;
61471;SDS011;47337;54.068;12.114;2023-05-27T14:02:33;8.80;;;2.20;;
61471;SDS011;47337;54.068;12.114;2023-05-27T14:05:01;8.65;;;2.90;;
61471;SDS011;47337;54.068;12.114;2023-05-27T14:07:27;7.90;;;2.25;;
61471;SDS011;47337;54.068;12.114;2023-05-27T14:09:55;8.90;;;2.70;;
61471;SDS011;47337;54.068;12.114;2023-05-27T14:12:20;11.18;;;3.00;;
61471;SDS011;47337;54.068;12.114;2023-05-27T14:14:45;8.80;;;2.97;;
61471;SDS011;47337;54.068;12.114;2023-05-27T14:17:10;9.82;;;3.00;;
61471;SDS011;47337;54.068;12.114;2023-05-27T14:19:36;11.77;;;2.65;;
61471;SDS011;47337;54.068;12.114;2023-05-27T14:22:03;10.38;;;2.50;;
61471;SDS011;47337;54.068;12.114;2023-05-27T14:24:31;12.60;;;3.13;;
61471;SDS011;47337;54.068;12.114;2023-05-27T14:26:58;6.70;;;2.45;;
61471;SDS011;47337;54.068;12.114;2023-05-27T14:29:26;9.43;;;2.58;;
61471;SDS011;47337;54.068;12.114;2023-05-27T14:31:52;9.75;;;3.05;;
61471;SDS011;47337;54.068;12.114;2023-05-27T14:34:17;7.95;;;3.05;;
61471;SDS011;47337;54.068;12.114;2023-05-27T14:36:42;11.55;;;3.25;;